sensor_id;sensor_type;location;lat;lon;timestamp;pressure;altitude;pressure_sealevel;temperature
62930;BMP280;49036;42.782;23.108;2022-12-29T00:01:17;94823.19;;;3.29
62930;BMP280;49036;42.782;23.108;2022-12-29T00:03:46;94832.16;;;3.30
62930;BMP280;49036;42.782;23.108;2022-12-29T00:06:12;94834.84;;;3.35
62930;BMP280;49036;42.782;23.108;2022-12-29T00:08:37;94840.03;;;3.39
62930;BMP280;49036;42.782;23.108;2022-12-29T00:11:11;94838.44;;;3.49
62930;BMP280;49036;42.782;23.108;2022-12-29T00:13:37;94842.06;;;3.38
62930;BMP280;49036;42.782;23.108;2022-12-29T00:16:21;94841.00;;;3.41
62930;BMP280;49036;42.782;23.108;2022-12-29T00:18:47;94849.25;;;3.41
62930;BMP280;49036;42.782;23.108;2022-12-29T00:21:14;94849.00;;;3.39
62930;BMP280;49036;42.782;23.108;2022-12-29T00:23:58;94855.25;;;3.40
62930;BMP280;49036;42.782;23.108;2022-12-29T00:26:42;94848.50;;;3.41
62930;BMP280;49036;42.782;23.108;2022-12-29T00:29:27;94849.72;;;3.45
62930;BMP280;49036;42.782;23.108;2022-12-29T00:32:11;94849.00;;;3.39
62930;BMP280;49036;42.782;23.108;2022-12-29T00:34:55;94854.06;;;3.35
62930;BMP280;49036;42.782;23.108;2022-12-29T00:37:41;94847.09;;;3.34
62930;BMP280;49036;42.782;23.108;2022-12-29T00:40:26;94843.59;;;3.34
62930;BMP280;49036;42.782;23.108;2022-12-29T00:43:10;94863.56;;;3.34
62930;BMP280;49036;42.782;23.108;2022-12-29T00:45:54;94854.56;;;3.34
62930;BMP280;49036;42.782;23.108;2022-12-29T00:48:20;94846.88;;;3.32
62930;BMP280;49036;42.782;23.108;2022-12-29T00:51:06;94848.34;;;3.33
62930;BMP280;49036;42.782;23.108;2022-12-29T00:53:32;94842.88;;;3.33
62930;BMP280;49036;42.782;23.108;2022-12-29T00:55:58;94847.88;;;3.54
62930;BMP280;49036;42.782;23.108;2022-12-29T00:58:23;94855.88;;;3.52
62930;BMP280;49036;42.782;23.108;2022-12-29T01:00:49;94859.50;;;3.60
62930;BMP280;49036;42.782;23.108;2022-12-29T01:03:14;94854.91;;;3.49
62930;BMP280;49036;42.782;23.108;2022-12-29T01:05:40;94848.00;;;3.61
62930;BMP280;49036;42.782;23.108;2022-12-29T01:08:05;94855.81;;;3.57
62930;BMP280;49036;42.782;23.108;2022-12-29T01:10:31;94848.44;;;3.46
62930;BMP280;49036;42.782;23.108;2022-12-29T01:12:56;94845.41;;;3.50
62930;BMP280;49036;42.782;23.108;2022-12-29T01:15:22;94831.09;;;3.38
62930;BMP280;49036;42.782;23.108;2022-12-29T01:17:47;94844.34;;;3.34
62930;BMP280;49036;42.782;23.108;2022-12-29T01:20:13;94840.19;;;3.28
62930;BMP280;49036;42.782;23.108;2022-12-29T01:22:38;94825.72;;;3.27
62930;BMP280;49036;42.782;23.108;2022-12-29T01:25:05;94827.47;;;3.25
62930;BMP280;49036;42.782;23.108;2022-12-29T01:27:31;94831.25;;;3.22
62930;BMP280;49036;42.782;23.108;2022-12-29T01:29:56;94828.72;;;3.24
62930;BMP280;49036;42.782;23.108;2022-12-29T01:32:22;94818.19;;;3.33
62930;BMP280;49036;42.782;23.108;2022-12-29T01:34:48;94816.75;;;3.27
62930;BMP280;49036;42.782;23.108;2022-12-29T01:37:14;94822.34;;;3.15
62930;BMP280;49036;42.782;23.108;2022-12-29T01:39:39;94809.91;;;3.14
62930;BMP280;49036;42.782;23.108;2022-12-29T01:42:05;94809.72;;;3.07
62930;BMP280;49036;42.782;23.108;2022-12-29T01:47:41;94554.00;;;2.87
62930;BMP280;49036;42.782;23.108;2022-12-29T01:50:11;94762.78;;;2.92
62930;BMP280;49036;42.782;23.108;2022-12-29T01:52:44;94772.81;;;2.83
62930;BMP280;49036;42.782;23.108;2022-12-29T01:55:11;94768.44;;;2.75
62930;BMP280;49036;42.782;23.108;2022-12-29T01:57:41;94777.69;;;2.72
62930;BMP280;49036;42.782;23.108;2022-12-29T02:00:11;94770.13;;;2.78
62930;BMP280;49036;42.782;23.108;2022-12-29T02:02:37;94774.59;;;2.81
62930;BMP280;49036;42.782;23.108;2022-12-29T02:07:50;94780.88;;;2.76
62930;BMP280;49036;42.782;23.108;2022-12-29T02:10:21;94769.38;;;2.77
62930;BMP280;49036;42.782;23.108;2022-12-29T02:12:48;94782.19;;;2.69
62930;BMP280;49036;42.782;23.108;2022-12-29T02:15:14;94775.25;;;2.68
62930;BMP280;49036;42.782;23.108;2022-12-29T02:18:10;94785.59;;;2.75
62930;BMP280;49036;42.782;23.108;2022-12-29T02:29:04;94682.72;;;2.50
62930;BMP280;49036;42.782;23.108;2022-12-29T02:31:45;94745.75;;;2.50
62930;BMP280;49036;42.782;23.108;2022-12-29T02:34:48;94675.81;;;2.49
62930;BMP280;49036;42.782;23.108;2022-12-29T02:39:50;94664.78;;;2.54
62930;BMP280;49036;42.782;23.108;2022-12-29T02:45:21;94610.66;;;2.60
62930;BMP280;49036;42.782;23.108;2022-12-29T02:53:02;94606.13;;;2.63
62930;BMP280;49036;42.782;23.108;2022-12-29T02:55:29;94592.72;;;2.59
62930;BMP280;49036;42.782;23.108;2022-12-29T02:58:24;94612.19;;;2.56
62930;BMP280;49036;42.782;23.108;2022-12-29T03:09:19;94574.09;;;2.33
62930;BMP280;49036;42.782;23.108;2022-12-29T03:11:58;94604.16;;;2.15
62930;BMP280;49036;42.782;23.108;2022-12-29T03:14:44;94680.47;;;1.99
62930;BMP280;49036;42.782;23.108;2022-12-29T03:17:48;94596.00;;;1.85
62930;BMP280;49036;42.782;23.108;2022-12-29T03:20:24;94773.22;;;1.67
62930;BMP280;49036;42.782;23.108;2022-12-29T03:22:53;94749.94;;;1.49
62930;BMP280;49036;42.782;23.108;2022-12-29T03:25:30;94751.25;;;1.32
62930;BMP280;49036;42.782;23.108;2022-12-29T03:28:00;94756.28;;;1.16
62930;BMP280;49036;42.782;23.108;2022-12-29T03:30:28;94747.59;;;1.12
62930;BMP280;49036;42.782;23.108;2022-12-29T03:32:58;94702.91;;;1.04
62930;BMP280;49036;42.782;23.108;2022-12-29T03:35:28;94743.91;;;0.99
62930;BMP280;49036;42.782;23.108;2022-12-29T03:40:23;94740.44;;;0.92
62930;BMP280;49036;42.782;23.108;2022-12-29T03:42:50;94758.59;;;0.96
62930;BMP280;49036;42.782;23.108;2022-12-29T03:45:16;94758.81;;;1.03
62930;BMP280;49036;42.782;23.108;2022-12-29T03:47:41;94763.03;;;1.04
62930;BMP280;49036;42.782;23.108;2022-12-29T03:50:08;94761.03;;;1.05
62930;BMP280;49036;42.782;23.108;2022-12-29T03:52:33;94771.25;;;0.99
62930;BMP280;49036;42.782;23.108;2022-12-29T03:54:59;94756.59;;;0.96
62930;BMP280;49036;42.782;23.108;2022-12-29T03:57:25;94741.44;;;0.95
62930;BMP280;49036;42.782;23.108;2022-12-29T03:59:50;94755.13;;;0.95
62930;BMP280;49036;42.782;23.108;2022-12-29T04:02:16;94756.09;;;0.92
62930;BMP280;49036;42.782;23.108;2022-12-29T04:04:41;94739.69;;;0.92
62930;BMP280;49036;42.782;23.108;2022-12-29T04:07:07;94758.81;;;0.98
62930;BMP280;49036;42.782;23.108;2022-12-29T04:09:32;94771.00;;;0.97
62930;BMP280;49036;42.782;23.108;2022-12-29T04:11:58;94776.22;;;0.95
62930;BMP280;49036;42.782;23.108;2022-12-29T04:14:23;94773.25;;;0.92
62930;BMP280;49036;42.782;23.108;2022-12-29T04:16:49;94781.50;;;0.87
62930;BMP280;49036;42.782;23.108;2022-12-29T04:19:14;94780.50;;;0.84
62930;BMP280;49036;42.782;23.108;2022-12-29T04:21:40;94790.16;;;0.85
62930;BMP280;49036;42.782;23.108;2022-12-29T04:24:05;94796.84;;;0.90
62930;BMP280;49036;42.782;23.108;2022-12-29T04:26:32;94796.09;;;0.89
62930;BMP280;49036;42.782;23.108;2022-12-29T04:28:57;94792.88;;;0.97
62930;BMP280;49036;42.782;23.108;2022-12-29T04:31:23;94789.63;;;1.09
62930;BMP280;49036;42.782;23.108;2022-12-29T04:33:48;94799.50;;;1.24
62930;BMP280;49036;42.782;23.108;2022-12-29T04:36:14;94806.97;;;1.29
62930;BMP280;49036;42.782;23.108;2022-12-29T04:38:39;94811.88;;;1.47
62930;BMP280;49036;42.782;23.108;2022-12-29T04:41:05;94821.53;;;1.54
62930;BMP280;49036;42.782;23.108;2022-12-29T04:43:30;94826.50;;;1.61
62930;BMP280;49036;42.782;23.108;2022-12-29T04:45:56;94819.22;;;1.69
62930;BMP280;49036;42.782;23.108;2022-12-29T04:48:21;94830.16;;;1.69
62930;BMP280;49036;42.782;23.108;2022-12-29T04:50:48;94837.38;;;1.72
62930;BMP280;49036;42.782;23.108;2022-12-29T04:53:15;94833.84;;;1.83
62930;BMP280;49036;42.782;23.108;2022-12-29T04:55:40;94842.28;;;1.90
62930;BMP280;49036;42.782;23.108;2022-12-29T04:58:06;94841.78;;;1.92
62930;BMP280;49036;42.782;23.108;2022-12-29T05:00:32;94841.22;;;1.99
62930;BMP280;49036;42.782;23.108;2022-12-29T05:02:57;94840.00;;;1.94
62930;BMP280;49036;42.782;23.108;2022-12-29T05:05:23;94834.25;;;1.98
62930;BMP280;49036;42.782;23.108;2022-12-29T05:07:48;94832.03;;;1.96
62930;BMP280;49036;42.782;23.108;2022-12-29T05:10:14;94849.91;;;2.03
62930;BMP280;49036;42.782;23.108;2022-12-29T05:12:39;94840.69;;;2.00
62930;BMP280;49036;42.782;23.108;2022-12-29T05:15:10;94839.72;;;1.98
62930;BMP280;49036;42.782;23.108;2022-12-29T05:17:36;94851.69;;;1.95
62930;BMP280;49036;42.782;23.108;2022-12-29T05:20:02;94857.88;;;1.95
62930;BMP280;49036;42.782;23.108;2022-12-29T05:22:27;94859.84;;;2.00
62930;BMP280;49036;42.782;23.108;2022-12-29T05:24:53;94849.59;;;2.12
62930;BMP280;49036;42.782;23.108;2022-12-29T05:27:18;94845.09;;;2.15
62930;BMP280;49036;42.782;23.108;2022-12-29T05:29:44;94841.63;;;2.14
62930;BMP280;49036;42.782;23.108;2022-12-29T05:32:09;94852.09;;;2.16
62930;BMP280;49036;42.782;23.108;2022-12-29T05:34:35;94845.16;;;2.09
62930;BMP280;49036;42.782;23.108;2022-12-29T05:37:00;94852.88;;;2.05
62930;BMP280;49036;42.782;23.108;2022-12-29T05:39:27;94853.63;;;2.05
62930;BMP280;49036;42.782;23.108;2022-12-29T05:41:53;94842.69;;;2.05
62930;BMP280;49036;42.782;23.108;2022-12-29T05:44:18;94847.16;;;2.03
62930;BMP280;49036;42.782;23.108;2022-12-29T05:46:44;94844.69;;;1.99
62930;BMP280;49036;42.782;23.108;2022-12-29T05:49:09;94839.97;;;2.00
62930;BMP280;49036;42.782;23.108;2022-12-29T05:51:35;94841.72;;;1.97
62930;BMP280;49036;42.782;23.108;2022-12-29T05:54:00;94847.19;;;1.97
62930;BMP280;49036;42.782;23.108;2022-12-29T05:56:26;94852.50;;;1.90
62930;BMP280;49036;42.782;23.108;2022-12-29T05:58:51;94853.47;;;1.92
62930;BMP280;49036;42.782;23.108;2022-12-29T06:01:17;94858.63;;;1.96
62930;BMP280;49036;42.782;23.108;2022-12-29T06:03:42;94871.66;;;1.90
62930;BMP280;49036;42.782;23.108;2022-12-29T06:06:09;94862.94;;;1.91
62930;BMP280;49036;42.782;23.108;2022-12-29T06:08:34;94863.16;;;1.93
62930;BMP280;49036;42.782;23.108;2022-12-29T06:10:59;94856.38;;;2.00
62930;BMP280;49036;42.782;23.108;2022-12-29T06:13:25;94851.41;;;1.98
62930;BMP280;49036;42.782;23.108;2022-12-29T06:15:51;94864.09;;;2.01
62930;BMP280;49036;42.782;23.108;2022-12-29T06:18:17;94865.84;;;1.99
62930;BMP280;49036;42.782;23.108;2022-12-29T06:20:42;94856.34;;;2.05
62930;BMP280;49036;42.782;23.108;2022-12-29T06:23:08;94857.63;;;2.04
62930;BMP280;49036;42.782;23.108;2022-12-29T06:25:34;94845.41;;;2.05
62930;BMP280;49036;42.782;23.108;2022-12-29T06:28:01;94849.63;;;2.07
62930;BMP280;49036;42.782;23.108;2022-12-29T06:30:27;94840.94;;;2.02
62930;BMP280;49036;42.782;23.108;2022-12-29T06:32:52;94845.38;;;2.11
62930;BMP280;49036;42.782;23.108;2022-12-29T06:35:19;94864.72;;;2.24
62930;BMP280;49036;42.782;23.108;2022-12-29T06:37:45;94855.94;;;2.37
62930;BMP280;49036;42.782;23.108;2022-12-29T06:40:10;94870.47;;;2.56
62930;BMP280;49036;42.782;23.108;2022-12-29T06:42:37;94866.13;;;2.72
62930;BMP280;49036;42.782;23.108;2022-12-29T06:45:03;94867.78;;;2.81
62930;BMP280;49036;42.782;23.108;2022-12-29T06:47:28;94866.22;;;2.91
62930;BMP280;49036;42.782;23.108;2022-12-29T06:49:54;94866.75;;;2.84
62930;BMP280;49036;42.782;23.108;2022-12-29T06:52:19;94876.22;;;2.88
62930;BMP280;49036;42.782;23.108;2022-12-29T06:54:45;94867.00;;;2.86
62930;BMP280;49036;42.782;23.108;2022-12-29T06:57:10;94874.16;;;2.95
62930;BMP280;49036;42.782;23.108;2022-12-29T06:59:36;94869.34;;;3.01
62930;BMP280;49036;42.782;23.108;2022-12-29T07:02:01;94873.38;;;3.00
62930;BMP280;49036;42.782;23.108;2022-12-29T07:04:28;94876.31;;;3.02
62930;BMP280;49036;42.782;23.108;2022-12-29T07:06:53;94875.81;;;3.03
62930;BMP280;49036;42.782;23.108;2022-12-29T07:09:19;94864.81;;;3.09
62930;BMP280;49036;42.782;23.108;2022-12-29T07:11:45;94879.72;;;3.13
62930;BMP280;49036;42.782;23.108;2022-12-29T07:14:11;94861.50;;;3.16
62930;BMP280;49036;42.782;23.108;2022-12-29T07:16:37;94865.59;;;3.28
62930;BMP280;49036;42.782;23.108;2022-12-29T07:19:03;94881.94;;;3.39
62930;BMP280;49036;42.782;23.108;2022-12-29T07:21:28;94878.94;;;3.62
62930;BMP280;49036;42.782;23.108;2022-12-29T07:23:54;94863.69;;;3.66
62930;BMP280;49036;42.782;23.108;2022-12-29T07:26:20;94854.94;;;3.87
62930;BMP280;49036;42.782;23.108;2022-12-29T07:28:46;94869.66;;;3.89
62930;BMP280;49036;42.782;23.108;2022-12-29T07:31:15;94860.97;;;4.04
62930;BMP280;49036;42.782;23.108;2022-12-29T07:33:42;94867.25;;;4.18
62930;BMP280;49036;42.782;23.108;2022-12-29T07:36:09;94863.81;;;4.30
62930;BMP280;49036;42.782;23.108;2022-12-29T07:38:35;94852.91;;;4.25
62930;BMP280;49036;42.782;23.108;2022-12-29T07:41:00;94871.25;;;4.17
62930;BMP280;49036;42.782;23.108;2022-12-29T07:43:26;94851.97;;;4.22
62930;BMP280;49036;42.782;23.108;2022-12-29T07:45:51;94861.28;;;4.32
62930;BMP280;49036;42.782;23.108;2022-12-29T07:48:17;94850.91;;;4.25
62930;BMP280;49036;42.782;23.108;2022-12-29T07:50:42;94840.66;;;4.26
62930;BMP280;49036;42.782;23.108;2022-12-29T07:53:08;94861.38;;;4.27
62930;BMP280;49036;42.782;23.108;2022-12-29T07:55:34;94861.28;;;4.32
62930;BMP280;49036;42.782;23.108;2022-12-29T07:57:59;94874.78;;;4.49
62930;BMP280;49036;42.782;23.108;2022-12-29T08:00:25;94856.50;;;4.52
62930;BMP280;49036;42.782;23.108;2022-12-29T08:02:51;94858.00;;;4.66
62930;BMP280;49036;42.782;23.108;2022-12-29T08:05:16;94864.59;;;4.76
62930;BMP280;49036;42.782;23.108;2022-12-29T08:07:43;94872.56;;;4.80
62930;BMP280;49036;42.782;23.108;2022-12-29T08:10:09;94874.44;;;4.85
62930;BMP280;49036;42.782;23.108;2022-12-29T08:12:35;94858.59;;;4.91
62930;BMP280;49036;42.782;23.108;2022-12-29T08:15:01;94877.88;;;5.04
62930;BMP280;49036;42.782;23.108;2022-12-29T08:17:26;94887.84;;;5.20
62930;BMP280;49036;42.782;23.108;2022-12-29T08:19:51;94873.00;;;5.10
62930;BMP280;49036;42.782;23.108;2022-12-29T08:22:17;94880.44;;;5.29
62930;BMP280;49036;42.782;23.108;2022-12-29T08:24:42;94873.75;;;5.24
62930;BMP280;49036;42.782;23.108;2022-12-29T08:27:08;94883.19;;;5.42
62930;BMP280;49036;42.782;23.108;2022-12-29T08:29:34;94879.94;;;5.57
62930;BMP280;49036;42.782;23.108;2022-12-29T08:31:59;94861.06;;;5.21
62930;BMP280;49036;42.782;23.108;2022-12-29T08:34:25;94872.06;;;5.47
62930;BMP280;49036;42.782;23.108;2022-12-29T08:36:50;94869.13;;;5.45
62930;BMP280;49036;42.782;23.108;2022-12-29T08:39:16;94872.75;;;5.88
62930;BMP280;49036;42.782;23.108;2022-12-29T08:41:41;94875.59;;;6.08
62930;BMP280;49036;42.782;23.108;2022-12-29T08:44:07;94878.38;;;6.08
62930;BMP280;49036;42.782;23.108;2022-12-29T08:46:33;94875.88;;;6.39
62930;BMP280;49036;42.782;23.108;2022-12-29T08:48:58;94883.44;;;6.59
62930;BMP280;49036;42.782;23.108;2022-12-29T08:51:24;94879.31;;;6.94
62930;BMP280;49036;42.782;23.108;2022-12-29T08:53:50;94870.91;;;7.28
62930;BMP280;49036;42.782;23.108;2022-12-29T08:56:16;94882.28;;;7.53
62930;BMP280;49036;42.782;23.108;2022-12-29T08:58:41;94880.91;;;7.75
62930;BMP280;49036;42.782;23.108;2022-12-29T09:01:07;94885.03;;;7.97
62930;BMP280;49036;42.782;23.108;2022-12-29T09:03:32;94879.28;;;7.87
62930;BMP280;49036;42.782;23.108;2022-12-29T12:22:42;94736.13;;;7.71
62930;BMP280;49036;42.782;23.108;2022-12-29T12:25:15;94730.41;;;7.76
62930;BMP280;49036;42.782;23.108;2022-12-29T12:30:37;94707.78;;;8.16
62930;BMP280;49036;42.782;23.108;2022-12-29T12:35:52;94710.72;;;8.41
62930;BMP280;49036;42.782;23.108;2022-12-29T12:43:30;94716.22;;;8.56
62930;BMP280;49036;42.782;23.108;2022-12-29T12:49:01;94719.22;;;9.06
62930;BMP280;49036;42.782;23.108;2022-12-29T12:58:11;94710.22;;;10.13
62930;BMP280;49036;42.782;23.108;2022-12-29T13:08:49;94717.88;;;10.04
62930;BMP280;49036;42.782;23.108;2022-12-29T13:11:28;94708.91;;;9.96
62930;BMP280;49036;42.782;23.108;2022-12-29T13:22:30;94714.53;;;9.16
62930;BMP280;49036;42.782;23.108;2022-12-29T13:25:26;94715.66;;;9.21
62930;BMP280;49036;42.782;23.108;2022-12-29T13:30:33;94726.09;;;8.90
62930;BMP280;49036;42.782;23.108;2022-12-29T13:36:03;94721.31;;;8.82
62930;BMP280;49036;42.782;23.108;2022-12-29T13:41:00;94721.66;;;8.94
62930;BMP280;49036;42.782;23.108;2022-12-29T13:43:27;94717.19;;;9.06
62930;BMP280;49036;42.782;23.108;2022-12-29T13:46:07;94721.81;;;8.96
62930;BMP280;49036;42.782;23.108;2022-12-29T13:48:44;94714.66;;;8.93
62930;BMP280;49036;42.782;23.108;2022-12-29T13:51:11;94721.81;;;8.96
62930;BMP280;49036;42.782;23.108;2022-12-29T14:02:10;94715.44;;;8.71
62930;BMP280;49036;42.782;23.108;2022-12-29T14:04:58;94720.06;;;8.68
62930;BMP280;49036;42.782;23.108;2022-12-29T14:07:24;94725.59;;;8.68
62930;BMP280;49036;42.782;23.108;2022-12-29T14:09:50;94723.78;;;8.56
62930;BMP280;49036;42.782;23.108;2022-12-29T14:12:42;94718.97;;;8.64
62930;BMP280;49036;42.782;23.108;2022-12-29T14:17:37;94717.50;;;8.55
62930;BMP280;49036;42.782;23.108;2022-12-29T14:20:04;94715.31;;;8.53
62930;BMP280;49036;42.782;23.108;2022-12-29T14:22:32;94720.66;;;8.44
62930;BMP280;49036;42.782;23.108;2022-12-29T14:24:58;94727.31;;;8.33
62930;BMP280;49036;42.782;23.108;2022-12-29T14:29:52;94722.16;;;8.14
62930;BMP280;49036;42.782;23.108;2022-12-29T14:34:51;94736.84;;;7.79
62930;BMP280;49036;42.782;23.108;2022-12-29T14:37:35;94748.97;;;7.68
62930;BMP280;49036;42.782;23.108;2022-12-29T14:40:24;94743.25;;;7.58
62930;BMP280;49036;42.782;23.108;2022-12-29T14:42:53;94745.66;;;7.54
62930;BMP280;49036;42.782;23.108;2022-12-29T14:47:49;94742.84;;;7.47
62930;BMP280;49036;42.782;23.108;2022-12-29T14:53:01;94749.25;;;7.34
62930;BMP280;49036;42.782;23.108;2022-12-29T14:55:46;94743.38;;;7.30
62930;BMP280;49036;42.782;23.108;2022-12-29T15:00:52;94741.81;;;6.78
62930;BMP280;49036;42.782;23.108;2022-12-29T15:08:32;94736.31;;;6.07
62930;BMP280;49036;42.782;23.108;2022-12-29T15:11:11;94744.06;;;5.75
62930;BMP280;49036;42.782;23.108;2022-12-29T15:13:41;94743.31;;;5.54
62930;BMP280;49036;42.782;23.108;2022-12-29T15:16:25;94741.53;;;5.43
62930;BMP280;49036;42.782;23.108;2022-12-29T15:18:51;94745.03;;;5.43
62930;BMP280;49036;42.782;23.108;2022-12-29T15:21:17;94736.78;;;5.43
62930;BMP280;49036;42.782;23.108;2022-12-29T15:23:45;94740.31;;;5.31
62930;BMP280;49036;42.782;23.108;2022-12-29T15:26:10;94739.69;;;5.25
62930;BMP280;49036;42.782;23.108;2022-12-29T15:28:54;94734.91;;;5.25
62930;BMP280;49036;42.782;23.108;2022-12-29T15:31:22;94741.09;;;5.18
62930;BMP280;49036;42.782;23.108;2022-12-29T15:33:53;94740.22;;;4.97
62930;BMP280;49036;42.782;23.108;2022-12-29T15:36:25;94738.75;;;4.69
62930;BMP280;49036;42.782;23.108;2022-12-29T15:38:51;94739.03;;;4.39
62930;BMP280;49036;42.782;23.108;2022-12-29T15:41:23;94739.94;;;4.15
62930;BMP280;49036;42.782;23.108;2022-12-29T15:44:04;94741.78;;;3.94
62930;BMP280;49036;42.782;23.108;2022-12-29T15:46:32;94738.66;;;3.84
62930;BMP280;49036;42.782;23.108;2022-12-29T15:48:58;94746.44;;;3.80
62930;BMP280;49036;42.782;23.108;2022-12-29T15:51:29;94735.47;;;3.80
62930;BMP280;49036;42.782;23.108;2022-12-29T15:53:56;94731.34;;;3.73
62930;BMP280;49036;42.782;23.108;2022-12-29T15:56:22;94721.94;;;3.82
62930;BMP280;49036;42.782;23.108;2022-12-29T15:58:50;94734.78;;;3.93
62930;BMP280;49036;42.782;23.108;2022-12-29T16:01:27;94729.84;;;3.91
62930;BMP280;49036;42.782;23.108;2022-12-29T16:03:54;94737.22;;;3.96
62930;BMP280;49036;42.782;23.108;2022-12-29T16:06:33;94742.28;;;3.92
62930;BMP280;49036;42.782;23.108;2022-12-29T16:09:04;94736.34;;;3.88
62930;BMP280;49036;42.782;23.108;2022-12-29T16:11:41;94736.41;;;3.83
62930;BMP280;49036;42.782;23.108;2022-12-29T16:14:09;94740.31;;;3.74
62930;BMP280;49036;42.782;23.108;2022-12-29T16:16:41;94740.97;;;3.61
62930;BMP280;49036;42.782;23.108;2022-12-29T16:19:13;94747.81;;;3.55
62930;BMP280;49036;42.782;23.108;2022-12-29T16:21:41;94749.59;;;3.52
62930;BMP280;49036;42.782;23.108;2022-12-29T16:24:08;94748.88;;;3.52
62930;BMP280;49036;42.782;23.108;2022-12-29T16:26:37;94749.88;;;3.48
62930;BMP280;49036;42.782;23.108;2022-12-29T16:29:06;94745.72;;;3.61
62930;BMP280;49036;42.782;23.108;2022-12-29T16:31:47;94745.06;;;3.73
62930;BMP280;49036;42.782;23.108;2022-12-29T16:34:42;94744.22;;;3.79
62930;BMP280;49036;42.782;23.108;2022-12-29T16:37:33;94748.97;;;3.78
62930;BMP280;49036;42.782;23.108;2022-12-29T16:42:55;94756.78;;;3.74
62930;BMP280;49036;42.782;23.108;2022-12-29T16:50:33;94750.69;;;3.62
62930;BMP280;49036;42.782;23.108;2022-12-29T16:52:59;94751.66;;;3.65
62930;BMP280;49036;42.782;23.108;2022-12-29T16:55:25;94753.50;;;3.75
62930;BMP280;49036;42.782;23.108;2022-12-29T16:57:52;94747.19;;;3.81
62930;BMP280;49036;42.782;23.108;2022-12-29T17:00:23;94749.56;;;3.90
62930;BMP280;49036;42.782;23.108;2022-12-29T17:02:54;94752.44;;;3.97
62930;BMP280;49036;42.782;23.108;2022-12-29T17:05:21;94749.25;;;3.93
62930;BMP280;49036;42.782;23.108;2022-12-29T17:07:47;94751.16;;;3.98
62930;BMP280;49036;42.782;23.108;2022-12-29T17:10:13;94760.53;;;4.09
62930;BMP280;49036;42.782;23.108;2022-12-29T17:12:40;94758.19;;;4.13
62930;BMP280;49036;42.782;23.108;2022-12-29T17:15:14;94765.59;;;4.18
62930;BMP280;49036;42.782;23.108;2022-12-29T17:17:43;94757.56;;;4.20
62930;BMP280;49036;42.782;23.108;2022-12-29T17:22:43;94760.16;;;4.31
62930;BMP280;49036;42.782;23.108;2022-12-29T17:25:16;94756.56;;;4.36
62930;BMP280;49036;42.782;23.108;2022-12-29T17:30:16;94764.84;;;4.49
62930;BMP280;49036;42.782;23.108;2022-12-29T17:32:46;94767.50;;;4.55
62930;BMP280;49036;42.782;23.108;2022-12-29T17:35:15;94771.72;;;4.43
62930;BMP280;49036;42.782;23.108;2022-12-29T17:37:42;94762.50;;;4.40
62930;BMP280;49036;42.782;23.108;2022-12-29T17:40:13;94774.25;;;4.41
62930;BMP280;49036;42.782;23.108;2022-12-29T17:42:51;94766.22;;;4.43
62930;BMP280;49036;42.782;23.108;2022-12-29T17:45:20;94768.34;;;4.50
62930;BMP280;49036;42.782;23.108;2022-12-29T17:47:46;94762.97;;;4.57
62930;BMP280;49036;42.782;23.108;2022-12-29T17:50:14;94758.59;;;4.49
62930;BMP280;49036;42.782;23.108;2022-12-29T17:52:40;94766.50;;;4.39
62930;BMP280;49036;42.782;23.108;2022-12-29T17:55:06;94757.75;;;4.41
62930;BMP280;49036;42.782;23.108;2022-12-29T17:57:34;94759.63;;;4.32
62930;BMP280;49036;42.782;23.108;2022-12-29T18:00:00;94758.34;;;4.33
62930;BMP280;49036;42.782;23.108;2022-12-29T18:02:28;94766.91;;;4.30
62930;BMP280;49036;42.782;23.108;2022-12-29T18:04:56;94770.50;;;4.25
62930;BMP280;49036;42.782;23.108;2022-12-29T18:07:22;94760.84;;;4.18
62930;BMP280;49036;42.782;23.108;2022-12-29T18:09:48;94762.09;;;4.04
62930;BMP280;49036;42.782;23.108;2022-12-29T18:12:37;94754.13;;;4.00
62930;BMP280;49036;42.782;23.108;2022-12-29T18:15:04;94762.16;;;3.98
62930;BMP280;49036;42.782;23.108;2022-12-29T18:17:29;94748.34;;;4.04
62930;BMP280;49036;42.782;23.108;2022-12-29T18:19:55;94753.09;;;4.03
62930;BMP280;49036;42.782;23.108;2022-12-29T18:22:22;94753.38;;;4.00
62930;BMP280;49036;42.782;23.108;2022-12-29T18:24:49;94747.84;;;3.87
62930;BMP280;49036;42.782;23.108;2022-12-29T18:27:15;94752.38;;;3.84
62930;BMP280;49036;42.782;23.108;2022-12-29T18:29:41;94743.41;;;3.84
62930;BMP280;49036;42.782;23.108;2022-12-29T18:32:12;94748.66;;;3.82
62930;BMP280;49036;42.782;23.108;2022-12-29T18:34:39;94740.16;;;3.85
62930;BMP280;49036;42.782;23.108;2022-12-29T18:37:05;94748.38;;;3.85
62930;BMP280;49036;42.782;23.108;2022-12-29T18:39:30;94743.56;;;3.91
62930;BMP280;49036;42.782;23.108;2022-12-29T18:41:56;94745.56;;;3.91
62930;BMP280;49036;42.782;23.108;2022-12-29T18:44:21;94744.59;;;3.88
62930;BMP280;49036;42.782;23.108;2022-12-29T18:46:49;94742.06;;;3.90
62930;BMP280;49036;42.782;23.108;2022-12-29T18:49:14;94740.16;;;3.85
62930;BMP280;49036;42.782;23.108;2022-12-29T18:51:40;94736.94;;;3.81
62930;BMP280;49036;42.782;23.108;2022-12-29T18:54:05;94734.50;;;3.78
62930;BMP280;49036;42.782;23.108;2022-12-29T18:56:31;94733.56;;;3.75
62930;BMP280;49036;42.782;23.108;2022-12-29T18:58:56;94738.53;;;3.76
62930;BMP280;49036;42.782;23.108;2022-12-29T19:01:24;94749.88;;;3.86
62930;BMP280;49036;42.782;23.108;2022-12-29T19:03:52;94745.31;;;3.89
62930;BMP280;49036;42.782;23.108;2022-12-29T19:06:18;94751.16;;;3.98
62930;BMP280;49036;42.782;23.108;2022-12-29T19:08:43;94752.38;;;4.03
62930;BMP280;49036;42.782;23.108;2022-12-29T19:11:09;94752.31;;;3.90
62930;BMP280;49036;42.782;23.108;2022-12-29T19:13:34;94744.38;;;3.86
62930;BMP280;49036;42.782;23.108;2022-12-29T19:16:00;94748.22;;;3.78
62930;BMP280;49036;42.782;23.108;2022-12-29T19:18:27;94751.59;;;3.70
62930;BMP280;49036;42.782;23.108;2022-12-29T19:20:54;94750.34;;;3.71
62930;BMP280;49036;42.782;23.108;2022-12-29T19:23:22;94746.31;;;3.72
62930;BMP280;49036;42.782;23.108;2022-12-29T19:25:49;94753.72;;;3.78
62930;BMP280;49036;42.782;23.108;2022-12-29T19:28:21;94752.69;;;3.81
62930;BMP280;49036;42.782;23.108;2022-12-29T19:30:48;94749.66;;;3.84
62930;BMP280;49036;42.782;23.108;2022-12-29T19:33:14;94745.63;;;3.85
62930;BMP280;49036;42.782;23.108;2022-12-29T19:35:39;94752.59;;;3.86
62930;BMP280;49036;42.782;23.108;2022-12-29T19:38:05;94748.91;;;3.84